Time;durP1;ratioP1;P1;durP2;ratioP2;P2;SDS_P1;SDS_P2;PMS_P1;PMS_P2;Temp;Humidity;BMP_temperature;BMP_pressure;BME280_temperature;BME280_humidity;BME280_pressure;Samples;Min_cycle;Max_cycle;Signal;HPM_P1;HPM_P2
2023/02/21 02:28:10;;;;;;;9.80;5.00;;;;;;;7.47;61.27;95072.63;104051;1302;558237;-62
2023/02/21 02:31:09;;;;;;;4.70;3.90;;;;;;;7.26;61.68;95052.30;105472;1287;718721;-62
2023/02/21 02:34:22;;;;;;;8.20;4.60;;;;;;;7.11;62.23;95049.53;106228;1287;24483;-62
2023/02/21 02:36:56;;;;;;;11.50;4.60;;;;;;;7.00;62.54;95049.84;106132;1287;22527;-62
2023/02/21 02:40:20;;;;;;;7.40;5.00;;;;;;;6.99;62.61;95035.02;106239;1287;22530;-62
2023/02/21 02:43:04;;;;;;;;;;;;;;;6.95;62.89;95042.77;105624;1296;22639;-62
2023/02/21 02:45:41;;;;;;;8.30;4.40;;;;;;;6.88;63.03;95036.20;106276;1287;22579;-61
2023/02/21 02:48:19;;;;;;;6.00;3.80;;;;;;;6.88;63.12;95032.02;105920;1287;22557;-62
2023/02/21 02:50:50;;;;;;;4.20;2.70;;;;;;;6.83;63.33;95047.98;105945;1284;22530;-62
2023/02/21 02:53:24;;;;;;;5.80;3.70;;;;;;;6.84;63.43;95029.60;106164;1284;22632;-63
2023/02/21 02:55:59;;;;;;;8.00;4.30;;;;;;;6.82;63.45;95023.69;105924;1284;22553;-62
2023/02/21 02:58:36;;;;;;;7.30;3.40;;;;;;;6.84;63.52;95024.89;105972;1284;22557;-62
2023/02/21 03:01:30;;;;;;;5.40;3.60;;;;;;;6.79;63.67;95017.96;105990;1284;22542;-63
2023/02/21 03:04:24;;;;;;;6.10;3.30;;;;;;;6.64;64.19;95018.50;106132;1284;22635;-62
2023/02/21 03:06:59;;;;;;;6.90;4.20;;;;;;;6.59;64.37;95012.97;106154;1284;25402;-62
2023/02/21 03:09:28;;;;;;;7.80;4.50;;;;;;;6.55;64.55;95007.61;105944;1284;25469;-62
2023/02/21 03:12:02;;;;;;;7.40;4.00;;;;;;;6.53;64.59;95014.11;106155;1284;25392;-63
2023/02/21 03:15:01;;;;;;;5.70;4.00;;;;;;;6.53;64.60;95013.76;105985;1284;22524;-63
2023/02/21 03:17:37;;;;;;;7.90;4.30;;;;;;;6.53;64.56;95002.56;106010;1284;22540;-63
2023/02/21 03:20:08;;;;;;;9.90;4.30;;;;;;;6.56;64.35;95017.56;106308;1284;22546;-62
2023/02/21 03:22:37;;;;;;;6.50;3.70;;;;;;;6.62;64.19;95009.45;106246;1284;24111;-63
2023/02/21 03:25:06;;;;;;;7.60;5.00;;;;;;;6.64;63.94;95005.40;106116;1284;26095;-63
2023/02/21 03:27:38;;;;;;;7.00;4.40;;;;;;;6.62;64.04;95004.55;105963;1284;25131;-62
2023/02/21 03:30:28;;;;;;;6.00;3.70;;;;;;;6.63;64.01;95007.50;106097;1284;22550;-63
2023/02/21 03:32:58;;;;;;;6.80;3.90;;;;;;;6.63;64.18;95016.95;105988;1284;24390;-63
2023/02/21 03:35:29;;;;;;;6.10;4.30;;;;;;;6.61;64.24;95008.42;106102;1284;22795;-63
2023/02/21 03:37:58;;;;;;;6.90;4.80;;;;;;;6.61;64.17;95015.92;106582;1276;22558;-63
2023/02/21 03:40:32;;;;;;;5.60;3.90;;;;;;;6.58;64.20;95012.11;106632;1276;22800;-63
2023/02/21 03:43:06;;;;;;;6.20;2.60;;;;;;;6.53;64.48;95020.92;106550;1276;26669;-63
2023/02/21 03:45:54;;;;;;;5.80;3.80;;;;;;;6.43;64.90;95018.25;106563;1275;22760;-63
2023/02/21 03:48:22;;;;;;;7.30;4.80;;;;;;;6.39;65.12;95032.45;106541;1276;22527;-63
2023/02/21 03:51:02;;;;;;;7.10;4.40;;;;;;;6.37;65.20;95029.66;106374;1276;22533;-63
2023/02/21 03:53:35;;;;;;;5.60;3.80;;;;;;;6.41;65.09;95031.54;106592;1276;24368;-63
2023/02/21 03:56:04;;;;;;;6.60;4.10;;;;;;;6.42;65.03;95025.58;106623;1276;22660;-63
2023/02/21 03:58:46;;;;;;;8.90;5.60;;;;;;;6.41;65.29;95024.91;106610;1276;25387;-63
2023/02/21 04:01:15;;;;;;;4.70;4.00;;;;;;;6.39;65.25;95022.31;106591;1276;22663;-63
2023/02/21 04:03:44;;;;;;;8.50;4.20;;;;;;;6.37;65.34;95027.39;106638;1275;23278;-63
2023/02/21 04:06:12;;;;;;;6.10;3.80;;;;;;;6.38;65.42;95022.14;106592;1276;25214;-63
2023/02/21 04:08:40;;;;;;;8.10;4.50;;;;;;;6.35;65.49;95030.21;106635;1276;24364;-63
2023/02/21 04:11:09;;;;;;;6.30;4.20;;;;;;;6.33;65.52;95033.73;106564;1276;22516;-63
2023/02/21 04:13:37;;;;;;;7.60;4.40;;;;;;;6.30;65.71;95034.11;106565;1276;22684;-63
2023/02/21 04:16:05;;;;;;;7.30;4.70;;;;;;;6.26;65.94;95022.98;106539;1276;22669;-63
2023/02/21 04:18:35;;;;;;;6.80;4.00;;;;;;;6.22;66.14;95034.54;106620;1276;24834;-64
2023/02/21 04:21:06;;;;;;;6.40;4.50;;;;;;;6.18;66.12;95026.21;106602;1276;22617;-63
2023/02/21 04:23:35;;;;;;;6.70;4.20;;;;;;;6.17;66.26;95029.01;106567;1276;24374;-63
2023/02/21 04:26:04;;;;;;;4.50;3.30;;;;;;;6.17;66.30;95018.02;106595;1276;22519;-63
2023/02/21 04:28:39;;;;;;;5.90;4.60;;;;;;;6.14;66.51;95018.05;106584;1276;27052;-63
2023/02/21 04:31:08;;;;;;;9.00;6.00;;;;;;;6.11;66.54;95023.48;106624;1276;22999;-63
2023/02/21 04:33:36;;;;;;;6.10;3.80;;;;;;;6.10;66.58;95024.36;106559;1276;22530;-63
2023/02/21 04:36:05;;;;;;;7.80;4.40;;;;;;;6.11;66.46;95020.34;106537;1276;22657;-64
2023/02/21 04:38:39;;;;;;;5.40;4.00;;;;;;;6.09;66.65;95016.86;106545;1276;22526;-63
2023/02/21 04:41:08;;;;;;;5.40;4.00;;;;;;;6.09;66.58;95003.25;106584;1276;25306;-63
2023/02/21 04:43:37;;;;;;;6.50;4.90;;;;;;;6.12;66.38;95011.79;106511;1276;25965;-63
2023/02/21 04:46:05;;;;;;;7.30;3.60;;;;;;;6.13;66.28;95008.28;106427;1276;25325;-63
2023/02/21 04:48:33;;;;;;;5.50;3.50;;;;;;;6.12;66.33;95003.40;106600;1276;22540;-63
2023/02/21 04:51:01;;;;;;;6.80;4.20;;;;;;;6.10;66.42;95011.27;106563;1276;22527;-63
2023/02/21 04:53:45;;;;;;;4.80;2.80;;;;;;;6.11;66.38;95017.55;106576;1276;22523;-63
2023/02/21 04:56:13;;;;;;;6.40;3.70;;;;;;;6.12;66.33;95010.73;106589;1276;22555;-63
2023/02/21 04:58:41;;;;;;;7.80;3.80;;;;;;;6.14;66.36;95011.75;106624;1276;22680;-63
2023/02/21 05:01:14;;;;;;;6.50;3.70;;;;;;;6.14;66.33;95014.37;106613;1276;25287;-63
2023/02/21 05:03:43;;;;;;;4.60;3.20;;;;;;;6.14;66.36;95033.06;106573;1276;23021;-63
2023/02/21 05:06:23;;;;;;;5.10;2.70;;;;;;;6.13;66.24;95014.23;106621;1276;22525;-63
2023/02/21 05:08:52;;;;;;;7.40;3.80;;;;;;;6.14;66.28;95027.65;106601;1276;25609;-63
2023/02/21 05:11:21;;;;;;;5.40;3.20;;;;;;;6.13;66.25;95024.34;106594;1276;22642;-63
2023/02/21 05:13:50;;;;;;;6.20;2.80;;;;;;;6.12;66.39;95030.64;106630;1276;22517;-63
2023/02/21 05:16:19;;;;;;;6.70;3.60;;;;;;;6.13;66.25;95046.35;106632;1276;22543;-63
2023/02/21 05:18:48;;;;;;;5.80;3.70;;;;;;;6.12;66.31;95034.48;106619;1271;22529;-63
2023/02/21 05:21:17;;;;;;;4.90;3.20;;;;;;;6.11;66.51;95037.45;106586;1276;22588;-63
2023/02/21 05:23:55;;;;;;;8.60;3.50;;;;;;;6.13;66.38;95029.07;106608;1276;22539;-63
2023/02/21 05:26:28;;;;;;;7.80;3.90;;;;;;;6.11;66.56;95029.42;106605;1276;22649;-63
2023/02/21 05:28:56;;;;;;;6.00;4.00;;;;;;;6.06;66.73;95041.00;106557;1276;24416;-63
2023/02/21 05:31:25;;;;;;;5.20;3.00;;;;;;;6.06;66.62;95028.25;106564;1276;25390;-63
2023/02/21 05:33:53;;;;;;;6.20;4.00;;;;;;;6.04;66.88;95032.64;106598;1270;22534;-63
2023/02/21 05:36:24;;;;;;;5.40;3.50;;;;;;;6.05;66.83;95036.13;106564;1276;25492;-63
2023/02/21 05:38:54;;;;;;;6.60;4.20;;;;;;;6.00;66.97;95020.97;106612;1276;24381;-63
2023/02/21 05:41:23;;;;;;;5.80;3.80;;;;;;;5.97;67.11;95020.84;106637;1276;25262;-63
2023/02/21 05:43:51;;;;;;;5.40;3.80;;;;;;;5.94;67.17;95024.35;106586;1276;23141;-63
2023/02/21 05:46:31;;;;;;;4.90;3.40;;;;;;;5.93;67.25;95026.27;106588;1276;25246;-63
2023/02/21 05:49:02;;;;;;;5.00;3.40;;;;;;;5.92;67.26;95028.19;106630;1276;22527;-63
2023/02/21 05:51:40;;;;;;;4.10;2.80;;;;;;;5.90;67.35;95026.82;106598;1259;24242;-63
2023/02/21 05:54:14;;;;;;;4.20;2.80;;;;;;;5.94;67.34;95032.38;106603;1276;25920;-63
2023/02/21 05:56:44;;;;;;;5.50;2.80;;;;;;;5.99;67.12;95034.08;106634;1276;24222;-63
2023/02/21 05:59:14;;;;;;;6.10;3.90;;;;;;;6.03;67.04;95036.48;106573;1276;22645;-63
2023/02/21 06:01:42;;;;;;;6.90;3.70;;;;;;;6.05;66.94;95046.42;106469;1272;25309;-68
2023/02/21 06:04:10;;;;;;;3.80;3.10;;;;;;;6.07;66.90;95048.31;106364;1276;22537;-68
2023/02/21 06:06:39;;;;;;;5.60;3.50;;;;;;;6.11;66.84;95042.17;106516;1276;25262;-68
2023/02/21 06:09:07;;;;;;;4.40;2.70;;;;;;;6.12;66.82;95049.85;106906;1276;22574;-69
2023/02/21 06:11:37;;;;;;;4.10;3.40;;;;;;;6.14;66.73;95052.61;106475;1276;24372;-67
2023/02/21 06:14:11;;;;;;;4.10;3.10;;;;;;;6.18;66.42;95041.04;106588;1276;24543;-65
2023/02/21 06:16:39;;;;;;;4.60;3.30;;;;;;;6.22;66.43;95048.52;106451;1276;22524;-66
2023/02/21 06:19:09;;;;;;;4.30;3.20;;;;;;;6.27;66.18;95054.76;106504;1269;22539;-66
2023/02/21 06:21:40;;;;;;;6.30;3.10;;;;;;;6.33;65.93;95049.63;106580;1276;22639;-68
2023/02/21 06:24:10;;;;;;;4.60;3.10;;;;;;;6.37;65.85;95052.38;106463;1276;24367;-69
2023/02/21 06:26:41;;;;;;;3.80;2.70;;;;;;;6.39;65.77;95039.25;107065;1276;26503;-68
2023/02/21 06:29:09;;;;;;;5.80;4.50;;;;;;;6.41;65.81;95049.89;106495;1272;25402;-70
2023/02/21 06:31:38;;;;;;;5.90;3.40;;;;;;;6.44;65.75;95046.17;106568;1276;23926;-68
2023/02/21 06:34:06;;;;;;;3.90;2.50;;;;;;;6.47;65.61;95042.30;106570;1276;25393;-68
2023/02/21 06:36:35;;;;;;;6.10;3.70;;;;;;;6.50;65.47;95038.61;106343;1276;23937;-68
2023/02/21 06:39:03;;;;;;;6.90;4.10;;;;;;;6.55;65.21;95045.35;106313;1276;23609;-67
2023/02/21 06:41:31;;;;;;;12.50;8.50;;;;;;;6.59;65.68;95033.95;106728;1276;24196;-68
2023/02/21 06:43:59;;;;;;;5.10;3.50;;;;;;;6.60;65.40;95043.02;106709;1254;22593;-65
2023/02/21 06:46:29;;;;;;;5.30;3.30;;;;;;;6.64;65.02;95051.36;106733;1276;22517;-66
2023/02/21 06:48:57;;;;;;;5.20;3.40;;;;;;;6.71;64.93;95039.04;106770;1276;24373;-71
2023/02/21 06:51:28;;;;;;;6.30;3.40;;;;;;;6.76;64.81;95035.30;107023;1276;22519;-65
2023/02/21 06:53:57;;;;;;;6.50;4.90;;;;;;;6.80;64.72;95040.15;106918;1276;22521;-63
2023/02/21 06:56:26;;;;;;;11.30;6.80;;;;;;;6.81;64.89;95058.84;106557;1276;23843;-62
2023/02/21 06:58:54;;;;;;;7.20;4.70;;;;;;;6.85;64.76;95070.67;106462;1264;24380;-64
2023/02/21 07:01:26;;;;;;;20.10;14.00;;;;;;;6.87;64.78;95056.67;110281;1276;22179;-64
2023/02/21 07:03:57;;;;;;;9.30;6.80;;;;;;;6.92;64.45;95045.43;106470;1276;22558;-65
2023/02/21 07:06:25;;;;;;;8.50;6.90;;;;;;;6.98;64.49;95036.25;106653;1276;22532;-65
2023/02/21 07:08:56;;;;;;;32.20;24.90;;;;;;;7.01;64.21;95033.94;108698;1276;22528;-68
2023/02/21 07:11:24;;;;;;;23.10;17.60;;;;;;;7.04;64.33;95034.06;106808;1276;25251;-67
2023/02/21 07:13:55;;;;;;;17.80;14.70;;;;;;;7.09;64.55;95031.70;106723;1276;22531;-67
2023/02/21 07:16:24;;;;;;;10.00;6.20;;;;;;;7.15;64.23;95031.98;106778;1276;22542;-66
2023/02/21 07:18:53;;;;;;;9.40;8.10;;;;;;;7.20;64.11;95030.17;106783;1276;25223;-67
2023/02/21 07:21:21;;;;;;;6.00;3.40;;;;;;;7.27;63.85;95042.31;106943;1276;23349;-67
2023/02/21 07:23:49;;;;;;;5.70;3.70;;;;;;;7.34;63.49;95044.30;106908;1276;25398;-66
2023/02/21 07:26:17;;;;;;;13.30;9.30;;;;;;;7.40;63.75;95057.34;106873;1276;22526;-67
2023/02/21 07:28:48;;;;;;;4.70;2.90;;;;;;;7.45;63.69;95050.27;106919;1276;25389;-66
2023/02/21 07:31:16;;;;;;;9.60;8.60;;;;;;;7.48;63.15;95051.79;106717;1276;25341;-66
2023/02/21 07:33:46;;;;;;;11.00;8.80;;;;;;;7.55;63.52;95051.33;106675;1276;22553;-66
2023/02/21 07:36:15;;;;;;;4.40;3.50;;;;;;;7.64;63.37;95058.55;106440;1276;24370;-67
2023/02/21 07:38:43;;;;;;;5.40;3.50;;;;;;;7.72;63.37;95054.21;106631;1276;22644;-65
2023/02/21 07:41:13;;;;;;;13.30;8.00;;;;;;;7.82;62.87;95045.12;106357;1276;22580;-66
2023/02/21 07:43:42;;;;;;;7.60;4.90;;;;;;;7.92;62.86;95045.65;106473;1276;24200;-66
2023/02/21 07:46:17;;;;;;;4.50;3.80;;;;;;;8.03;62.49;95045.80;106793;1276;22570;-66
2023/02/21 07:48:45;;;;;;;4.60;3.50;;;;;;;8.08;61.74;95048.70;107241;1276;22713;-66
2023/02/21 07:51:13;;;;;;;6.30;4.70;;;;;;;8.12;61.63;95040.21;106411;1276;26139;-68
2023/02/21 07:53:42;;;;;;;4.80;3.30;;;;;;;8.19;61.74;95034.84;107948;1276;25093;-66
2023/02/21 07:56:10;;;;;;;5.90;4.70;;;;;;;8.28;61.76;95027.14;106554;1276;23687;-66
2023/02/21 07:58:39;;;;;;;6.60;3.60;;;;;;;8.38;61.24;95032.04;106610;1276;22732;-65
2023/02/21 08:01:07;;;;;;;3.80;2.80;;;;;;;8.45;61.13;95035.45;106515;1276;22635;-65
2023/02/21 08:03:36;;;;;;;8.40;5.40;;;;;;;8.51;61.03;95036.02;106426;1276;22654;-66
2023/02/21 08:06:07;;;;;;;6.40;2.70;;;;;;;8.57;60.72;95032.21;107110;1276;22598;-67
2023/02/21 08:08:35;;;;;;;5.70;4.20;;;;;;;8.62;60.65;95040.90;106714;1276;22531;-66
2023/02/21 08:11:03;;;;;;;4.60;3.60;;;;;;;8.76;61.53;95041.14;106210;1276;22523;-69
2023/02/21 08:13:31;;;;;;;3.90;3.10;;;;;;;8.90;60.56;95040.84;108012;1276;23929;-65
2023/02/21 08:16:00;;;;;;;6.60;3.70;;;;;;;9.02;60.58;95032.00;106491;1276;25323;-68
2023/02/21 08:31:34;;;;;;;5.70;4.10;;;;;;;9.62;58.10;95034.65;104471;1305;557319;-64
2023/02/21 08:34:03;;;;;;;5.60;3.60;;;;;;;9.59;57.49;95046.85;105823;1287;173428;-67
2023/02/21 08:36:34;;;;;;;4.90;3.30;;;;;;;9.51;57.99;95045.63;106287;1287;25288;-66
2023/02/21 08:39:03;;;;;;;6.00;3.90;;;;;;;9.47;58.25;95051.52;106241;1287;25497;-70
2023/02/21 08:41:39;;;;;;;6.70;4.00;;;;;;;9.45;58.06;95051.92;107271;1287;24209;-69
2023/02/21 08:44:10;;;;;;;6.10;4.10;;;;;;;9.40;58.48;95044.31;106718;1279;22546;-66
2023/02/21 08:46:39;;;;;;;7.40;5.00;;;;;;;9.39;59.17;95045.22;106555;1279;25388;-64
2023/02/21 09:00:34;;;;;;;7.70;6.40;;;;;;;9.75;57.54;95030.68;104401;1304;557975;-67
2023/02/21 09:03:02;;;;;;;6.30;5.60;;;;;;;9.63;57.82;95030.63;105879;1286;170783;-67
2023/02/21 09:05:31;;;;;;;6.90;3.60;;;;;;;9.50;58.01;95030.91;106036;1287;24266;-68
2023/02/21 09:08:04;;;;;;;5.30;3.40;;;;;;;9.38;58.39;95025.75;106176;1287;24360;-70
2023/02/21 09:10:35;;;;;;;6.40;3.30;;;;;;;9.26;58.80;95009.53;107654;1287;24259;-76
2023/02/21 09:13:04;;;;;;;6.30;2.40;;;;;;;9.18;58.80;95005.69;105768;1287;25445;-67
2023/02/21 09:15:32;;;;;;;4.40;3.00;;;;;;;9.10;59.26;95006.02;106274;1257;24201;-73
2023/02/21 09:18:00;;;;;;;5.10;3.20;;;;;;;9.13;59.82;94997.02;106190;1279;22519;-68
2023/02/21 09:20:28;;;;;;;4.30;2.70;;;;;;;9.24;59.50;94997.64;106218;1279;24214;-69
2023/02/21 09:22:56;;;;;;;5.60;3.10;;;;;;;9.30;59.08;95001.52;106271;1279;22638;-72
2023/02/21 09:25:24;;;;;;;4.60;3.30;;;;;;;9.45;59.22;94999.79;106603;1279;25317;-74
2023/02/21 09:27:53;;;;;;;5.30;3.10;;;;;;;9.56;58.69;95003.21;106636;1279;22529;-69
2023/02/21 09:30:25;;;;;;;6.60;3.40;;;;;;;9.57;58.32;95018.81;108753;1279;22594;-68
2023/02/21 09:32:55;;;;;;;4.20;2.00;;;;;;;9.52;58.61;95008.03;106334;1279;22578;-73
2023/02/21 09:35:23;;;;;;;6.90;3.60;;;;;;;9.58;58.85;95009.14;106150;1273;22576;-68
2023/02/21 09:37:51;;;;;;;3.60;2.80;;;;;;;9.76;59.15;95027.64;106220;1279;25506;-70
2023/02/21 09:40:22;;;;;;;6.50;4.00;;;;;;;9.80;58.34;95033.17;106261;1279;23001;-73
2023/02/21 09:42:53;;;;;;;5.10;3.20;;;;;;;9.89;58.29;95019.26;106164;1279;22532;-75
2023/02/21 09:45:29;;;;;;;5.70;2.80;;;;;;;9.97;58.43;95016.08;106139;1279;22538;-69
2023/02/21 09:48:02;;;;;;;6.30;2.90;;;;;;;10.06;57.75;95021.63;109842;1279;22627;-66
2023/02/21 09:50:33;;;;;;;;;;;;;;;10.11;57.38;95028.36;106286;1279;22501;-69
2023/02/21 09:53:02;;;;;;;6.50;3.60;;;;;;;10.08;57.77;95033.36;106156;1279;22789;-69
2023/02/21 09:55:35;;;;;;;3.90;2.80;;;;;;;10.17;57.54;95025.05;106269;1279;22534;-74
2023/02/21 09:58:11;;;;;;;3.60;2.60;;;;;;;10.31;57.32;95032.62;106163;1279;22646;-66
2023/02/21 10:00:41;;;;;;;2.50;2.00;;;;;;;10.36;56.61;95028.27;106263;1257;25488;-74
2023/02/21 10:03:31;;;;;;;6.00;3.50;;;;;;;10.31;57.10;95022.08;106547;1276;22569;-73
2023/02/21 10:06:09;;;;;;;5.80;2.90;;;;;;;10.51;57.00;95032.60;106730;1276;22808;-71
2023/02/21 10:08:40;;;;;;;4.80;3.30;;;;;;;10.64;56.69;95015.73;106361;1272;25287;-72
2023/02/21 10:11:21;;;;;;;5.30;2.80;;;;;;;10.78;56.37;95009.69;106571;1277;22639;-72
2023/02/21 10:14:14;;;;;;;8.00;5.20;;;;;;;10.91;56.26;95001.94;106745;1277;25290;-72
2023/02/21 10:16:46;;;;;;;4.00;2.70;;;;;;;10.92;55.48;94998.55;109723;1277;22570;-70
2023/02/21 10:19:35;;;;;;;4.20;2.30;;;;;;;11.11;55.72;94989.70;106477;1277;23900;-71
2023/02/21 10:22:15;;;;;;;4.90;2.70;;;;;;;11.30;54.98;94999.52;106427;1277;24051;-72
2023/02/21 10:24:43;;;;;;;3.90;3.10;;;;;;;11.42;54.84;94986.63;106406;1277;24357;-71
2023/02/21 10:27:24;;;;;;;4.80;2.90;;;;;;;11.57;54.89;94994.45;106306;1277;22530;-71
2023/02/21 10:30:09;;;;;;;3.80;2.40;;;;;;;11.68;54.30;94998.14;108671;1277;22600;-72
2023/02/21 10:32:37;;;;;;;4.60;2.90;;;;;;;11.76;54.34;94996.46;106672;1277;25362;-72
2023/02/21 10:35:06;;;;;;;3.20;2.50;;;;;;;11.84;54.25;94998.49;106432;1277;25555;-72
2023/02/21 10:37:34;;;;;;;3.30;2.40;;;;;;;11.89;53.92;95004.02;106486;1277;22558;-72
2023/02/21 10:40:06;;;;;;;3.80;2.90;;;;;;;12.11;53.91;95000.29;106460;1277;25389;-71
2023/02/21 10:42:42;;;;;;;;;;;;;;;12.47;53.40;95001.84;106600;1277;22520;-72
2023/02/21 10:45:12;;;;;;;3.30;2.80;;;;;;;12.86;52.25;95009.61;106708;1277;23884;-72
2023/02/21 10:48:04;;;;;;;4.60;3.10;;;;;;;13.20;51.13;94994.92;106459;1277;25275;-71
2023/02/21 10:51:02;;;;;;;3.20;2.40;;;;;;;13.53;50.34;94993.14;106673;1277;23298;-72
2023/02/21 10:53:36;;;;;;;3.40;2.80;;;;;;;13.54;49.43;94983.04;106567;1277;25217;-71
2023/02/21 10:56:13;;;;;;;5.30;2.80;;;;;;;13.67;49.08;94998.61;106545;1277;25409;-72
2023/02/21 10:58:50;;;;;;;4.80;2.70;;;;;;;13.83;48.85;95007.69;106513;1277;25417;-71
2023/02/21 11:01:30;;;;;;;3.10;2.40;;;;;;;13.93;48.55;95008.14;106455;1277;24298;-72
2023/02/21 11:04:00;;;;;;;4.40;2.60;;;;;;;14.31;48.26;94999.48;106422;1277;22519;-70
2023/02/21 11:06:38;;;;;;;5.20;2.70;;;;;;;14.68;47.63;94994.21;106519;1277;24209;-70
2023/02/21 11:09:43;;;;;;;5.70;2.70;;;;;;;14.78;47.06;94988.09;106515;1277;24389;-70
2023/02/21 11:12:21;;;;;;;4.70;2.80;;;;;;;14.91;46.42;94984.84;106559;1277;22554;-70
2023/02/21 11:14:49;;;;;;;3.50;2.70;;;;;;;14.99;46.16;94987.14;106551;1277;26520;-71
2023/02/21 11:17:23;;;;;;;5.40;3.10;;;;;;;15.00;46.49;95003.75;106512;1277;24275;-70
2023/02/21 11:19:56;;;;;;;4.40;3.20;;;;;;;14.86;46.28;95003.33;106579;1277;22530;-70
2023/02/21 11:22:25;;;;;;;4.00;2.50;;;;;;;14.84;47.16;95015.43;106463;1277;22746;-70
2023/02/21 11:25:16;;;;;;;7.10;3.60;;;;;;;14.94;46.09;95016.75;106598;1277;22585;-70
2023/02/21 11:28:02;;;;;;;7.80;4.90;;;;;;;14.86;47.18;95019.61;106605;1277;24331;-70
2023/02/21 11:30:37;;;;;;;5.20;3.40;;;;;;;14.73;47.72;95022.48;106518;1277;22671;-70
2023/02/21 11:33:07;;;;;;;4.60;3.30;;;;;;;14.98;47.81;95026.33;106600;1277;22523;-70
2023/02/21 11:35:46;;;;;;;5.90;2.90;;;;;;;15.32;46.88;95015.21;106582;1267;24229;-69
2023/02/21 11:38:44;;;;;;;4.20;3.20;;;;;;;15.35;45.74;95003.71;106536;1277;22533;-70
2023/02/21 11:41:34;;;;;;;5.60;3.80;;;;;;;15.36;45.84;94998.58;106737;1277;24190;-69
2023/02/21 11:44:36;;;;;;;4.00;3.30;;;;;;;15.12;46.19;94995.05;106554;1277;25403;-70
2023/02/21 11:47:16;;;;;;;5.00;3.80;;;;;;;15.20;46.35;94985.66;106756;1277;22528;-70
2023/02/21 11:49:53;;;;;;;5.30;3.50;;;;;;;15.18;46.88;94976.17;106650;1277;24234;-69
2023/02/21 11:52:33;;;;;;;8.30;3.80;;;;;;;15.46;46.30;94972.89;106492;1277;22812;-70
2023/02/21 11:55:03;;;;;;;5.80;4.20;;;;;;;15.77;45.67;94978.55;106526;1277;22578;-70
2023/02/21 11:57:40;;;;;;;7.40;4.20;;;;;;;15.87;45.12;94968.85;106580;1277;22815;-70
2023/02/21 12:00:45;;;;;;;6.50;3.80;;;;;;;16.16;45.08;94960.47;106600;1277;22646;-70
2023/02/21 12:04:01;;;;;;;4.90;3.70;;;;;;;16.42;44.32;94960.74;106628;1277;24221;-70
2023/02/21 12:06:43;;;;;;;3.80;3.20;;;;;;;16.63;43.99;94950.57;106473;1276;26740;-70
2023/02/21 12:09:18;;;;;;;4.70;3.40;;;;;;;16.77;43.13;94943.47;106555;1276;22530;-70
2023/02/21 12:12:04;;;;;;;4.40;3.50;;;;;;;17.06;43.36;94940.52;106631;1276;22530;-70
2023/02/21 12:14:59;;;;;;;4.20;3.40;;;;;;;17.63;42.63;94954.92;106767;1276;24043;-70
2023/02/21 12:18:03;;;;;;;5.50;3.40;;;;;;;17.84;41.41;94973.89;106593;1276;22527;-70
2023/02/21 12:20:50;;;;;;;5.60;4.00;;;;;;;17.96;41.25;95001.16;106816;1276;24197;-70
2023/02/21 12:23:42;;;;;;;4.80;3.00;;;;;;;17.87;41.74;95001.83;106716;1266;22539;-70
2023/02/21 12:26:43;;;;;;;4.30;3.40;;;;;;;17.99;41.58;95007.60;106611;1276;22485;-69
2023/02/21 12:29:25;;;;;;;4.30;3.30;;;;;;;18.17;41.03;95007.75;106901;1276;22682;-70
2023/02/21 12:32:15;;;;;;;4.70;3.40;;;;;;;18.09;40.64;95002.52;106842;1276;24228;-70
2023/02/21 12:35:02;;;;;;;5.20;3.30;;;;;;;17.78;41.41;95004.29;106682;1276;24463;-70
2023/02/21 12:37:48;;;;;;;3.70;3.00;;;;;;;18.09;41.78;95007.34;106527;1276;25408;-70
2023/02/21 12:40:19;;;;;;;9.70;3.90;;;;;;;18.53;40.05;95009.09;106583;1276;22521;-69
2023/02/21 12:42:47;;;;;;;5.40;3.30;;;;;;;18.87;39.93;95006.16;106607;1275;22548;-70
2023/02/21 12:45:53;;;;;;;5.20;3.80;;;;;;;18.66;40.59;95016.31;106557;1276;22527;-70
2023/02/21 12:48:57;;;;;;;5.10;3.40;;;;;;;19.07;39.59;95017.12;106602;1276;22544;-70
2023/02/21 12:51:31;;;;;;;4.20;2.60;;;;;;;19.21;39.73;95019.27;106387;1276;22534;-70
2023/02/21 12:54:04;;;;;;;5.60;3.40;;;;;;;18.75;39.06;95033.92;106609;1276;22769;-70
2023/02/21 12:56:59;;;;;;;4.90;3.60;;;;;;;18.18;40.78;95037.27;106613;1276;22529;-70
2023/02/21 12:59:52;;;;;;;5.20;3.80;;;;;;;17.80;41.78;95027.11;106577;1276;25558;-70
2023/02/21 13:02:49;;;;;;;5.60;3.40;;;;;;;18.15;41.38;95031.75;106563;1276;22704;-70
2023/02/21 13:05:32;;;;;;;4.40;3.40;;;;;;;17.53;41.83;95035.02;106399;1276;25649;-70
2023/02/21 13:08:10;;;;;;;3.70;3.20;;;;;;;16.92;43.38;95038.79;106584;1276;22656;-69
2023/02/21 13:10:59;;;;;;;3.90;2.90;;;;;;;16.69;43.80;95041.94;106666;1276;22560;-71
2023/02/21 13:13:33;;;;;;;4.40;3.20;;;;;;;15.92;45.29;95049.09;106633;1276;24234;-71
2023/02/21 13:16:09;;;;;;;3.80;2.80;;;;;;;15.72;46.15;95047.02;106634;1276;23096;-72
2023/02/21 13:18:58;;;;;;;4.00;3.30;;;;;;;16.21;46.37;95040.75;106599;1276;22608;-71
2023/02/21 13:21:48;;;;;;;5.60;2.90;;;;;;;16.77;44.58;95040.09;106697;1276;22636;-71
2023/02/21 13:25:03;;;;;;;3.50;3.20;;;;;;;16.32;44.93;95049.45;106591;1276;24387;-71
2023/02/21 13:27:52;;;;;;;3.20;2.70;;;;;;;16.63;44.47;95041.48;106369;1276;25467;-71
2023/02/21 13:30:38;;;;;;;3.60;2.70;;;;;;;16.28;45.23;95049.50;106550;1276;22531;-71
2023/02/21 13:33:21;;;;;;;6.00;2.80;;;;;;;15.72;45.87;95047.58;106630;1276;24260;-71
2023/02/21 13:35:50;;;;;;;3.20;2.30;;;;;;;15.37;46.76;95052.72;106618;1276;24377;-71
2023/02/21 13:38:19;;;;;;;4.80;2.20;;;;;;;15.06;47.58;95051.67;106618;1276;22637;-71
2023/02/21 13:41:01;;;;;;;3.00;2.50;;;;;;;14.86;48.15;95056.80;106646;1276;25237;-71
2023/02/21 13:43:33;;;;;;;7.00;3.40;;;;;;;15.23;47.91;95046.98;106631;1276;25386;-71
2023/02/21 13:46:23;;;;;;;5.20;3.30;;;;;;;15.51;47.12;95049.05;106594;1276;22656;-71
2023/02/21 13:49:29;;;;;;;3.30;2.40;;;;;;;15.80;46.62;95045.95;106587;1276;22768;-71
2023/02/21 13:52:23;;;;;;;4.10;2.80;;;;;;;15.85;46.11;95047.52;106783;1276;24267;-71
2023/02/21 13:55:10;;;;;;;3.40;2.50;;;;;;;15.25;47.21;95050.77;106347;1276;22539;-71
2023/02/21 13:57:59;;;;;;;4.60;2.50;;;;;;;14.75;48.35;95045.06;106611;1276;22659;-72
2023/02/21 14:00:27;;;;;;;6.00;2.70;;;;;;;14.40;49.23;95047.76;106557;1276;25414;-72
2023/02/21 14:03:01;;;;;;;5.80;2.80;;;;;;;13.85;50.32;95050.88;106578;1276;25217;-72
2023/02/21 14:05:48;;;;;;;6.90;3.30;;;;;;;13.55;51.01;95055.78;106647;1276;23632;-71
2023/02/21 14:08:28;;;;;;;5.10;3.70;;;;;;;13.34;52.22;95054.14;106611;1276;22531;-71
2023/02/21 14:11:05;;;;;;;5.90;3.50;;;;;;;13.14;52.48;95048.14;106597;1276;22535;-71
2023/02/21 14:13:59;;;;;;;3.30;3.00;;;;;;;13.00;52.94;95051.82;106553;1254;22632;-71
2023/02/21 14:16:46;;;;;;;3.80;2.60;;;;;;;13.04;53.34;95046.94;106627;1276;25325;-71
2023/02/21 14:19:34;;;;;;;5.60;2.50;;;;;;;12.90;53.73;95045.83;106641;1276;24239;-72
2023/02/21 14:22:10;;;;;;;3.50;2.40;;;;;;;12.91;54.09;95046.15;106609;1269;25478;-72
2023/02/21 14:24:43;;;;;;;4.00;3.00;;;;;;;12.85;54.37;95047.09;106794;1276;22521;-72
2023/02/21 14:27:14;;;;;;;3.30;2.30;;;;;;;12.71;54.70;95046.87;106688;1276;25274;-72
2023/02/21 14:30:11;;;;;;;3.90;1.80;;;;;;;12.53;54.79;95054.05;106624;1276;22522;-71
2023/02/21 14:32:45;;;;;;;3.70;2.30;;;;;;;12.44;55.36;95052.58;106582;1276;22543;-71
2023/02/21 14:35:44;;;;;;;2.90;2.30;;;;;;;12.39;55.56;95056.64;106642;1276;22519;-71
2023/02/21 14:38:26;;;;;;;3.80;2.60;;;;;;;12.23;56.05;95052.77;106599;1259;23909;-71
2023/02/21 14:41:11;;;;;;;6.20;2.40;;;;;;;12.10;55.85;95065.02;106581;1276;25407;-72
2023/02/21 14:43:43;;;;;;;3.10;2.10;;;;;;;11.93;56.67;95062.91;106617;1276;25211;-72
2023/02/21 14:46:42;;;;;;;7.60;2.60;;;;;;;11.81;57.00;95063.45;106557;1276;25434;-72
2023/02/21 14:49:16;;;;;;;4.30;2.30;;;;;;;11.76;57.33;95063.77;106571;1276;22532;-72
2023/02/21 14:52:24;;;;;;;2.60;1.90;;;;;;;11.71;57.85;95065.89;106548;1276;22798;-71
2023/02/21 14:55:34;;;;;;;3.70;2.20;;;;;;;11.69;57.64;95066.45;106613;1276;25563;-72
2023/02/21 14:58:30;;;;;;;5.40;2.70;;;;;;;11.61;57.84;95066.02;106827;1276;25278;-72
2023/02/21 15:01:17;;;;;;;4.00;2.60;;;;;;;11.54;57.95;95064.27;106867;1276;22574;-71
2023/02/21 15:04:07;;;;;;;3.50;2.50;;;;;;;11.49;58.05;95068.84;106768;1276;22521;-72